Pilot Butte, Canada
Current Conditions -  °F | °C
As of 2:00 PM on Sunday 23 Nov 2014 (Local Time) from CYQR Reporting Station
Blowing Snow Blowing Snow  
Wind Chill: -3°   Ceiling: Unl
Heat Index: 14°   Visibility: 15mi
Dew Point: 10°   Wind: 18mph
Humidity: 86%   Direction: 320°NW
Pressure: 29.77"   Gusts: NA
Location:  50.48°N, 104.42°W
Report Text: CYQR 232000Z 32016KT 15SM DRSN FEW015 FEW260 M10/M12 A2977 RMK SC1CI2 SC TR SLP117
Loading
Personal Weather Stations






























Interactive Weather Map New forecast layout! Learn more

10-Day Weather Forecast

Advertisements
Track Severe Weather on mobile